Coeymans, NY (12045)

12:11 PM EDT on July 27, 2016 (GMT -0400)
Ravena | | Change Station

Elev 171 ft 42.49 °N, 73.82 °W | Updated 55 seconds ago

Partly Cloudy
Partly Cloudy
88.0 °F
Feels Like 88 °F
N
4.5
Wind Variable Wind from NE
Gusts 6.9 mph

Today
High -- | Low -- °F
--% Chance of Precip.
Yesterday
High -- | Low -- °F
Precip. -- in
Pressure 29.94 in
Visibility 10.0 miles
Clouds Few 5000 ft
Heat Index 88 °F
Dew Point 61 °F
Humidity 40%
Rainfall 0.00 in
Snow Depth Not available.
5:42 AM 8:19 PM
Last Quarter, 42% visible
METAR KALB 271551Z 00000KT 10SM FEW050 29/16 A2995 RMK AO2 SLP139 T02890161
Pressure 29.94 in
Visibility 10.0 miles
Clouds Few 5000 ft
Heat Index 88 °F
Dew Point 61 °F
Humidity 40%
Rainfall 0.00 in
Snow Depth Not available.
5:42 AM 8:19 PM
Last Quarter, 42% visible
METAR KALB 271551Z 00000KT 10SM FEW050 29/16 A2995 RMK AO2 SLP139 T02890161

10-Day Weather Forecast

Almanac

Astronomy

Jul. 27, 2016 Rise Set
Actual Time
Civil Twilight
Nautical Twilight
Astronomical Twilight
Moon
Length of Visible Light
Length of Day
Tomorrow will be .
, % of the Moon is Illuminated

Today's Extremes

State Highs State Lows

Community

WunderPhotos

Upload Photos

1,927,877 photos uploaded!

WunderBlog® & News

Nearby

Air Quality

  Air Quality AQ Index Pollutant
Not available.

Snow Depth

Station Depth Elevation

Earthquake Activity

City Distance Mag. Time & Date
Minimum magnitude displayed is 2.5.

Coastal Water Temperatures

Place Temperature

Stations

Nearby Weather Stations

Station Location Temp. Windchill Dew Point Humidity Wind Precip. Elev Updated Type
                   

Watches & Warnings

There are currently no watches in effect.